Accueil
METAR-TAF:

METAR-TAF

Aéroports :

Paris, France

Aéroport de Paris-Le Bourget

latitude: 48-58N, longitude: 002-27E, altitude: 66 m

Observation

Le bulletin a été fait il y a 37 minutes, à 15:00 UTC
Vent 7 kt de ouest/nord-ouest, variant entre ouest/sud-ouest et nord
Température 23°C
Humidité 50%
Pression 1020 hPa
Visibilité 10 km ou plus
Quelques nuages à une hauteur de 4300 ft

METAR: LFPB 231500Z AUTO 30007KT 250V360 9999 FEW043 23/12 Q1020 NOSIG

Heure: 17:37 (15:37 UTC)

Prévision

Le bulletin a été fait il y a 4 heures et 37 minutes, à 11:00 UTC
Prévision valable du 23 à 12 UTC au 24 à 12 UTC
Vent 10 kt de ouest
Visibilité 10 km ou plus
Nuages fragmentés à une hauteur de 3000 ft

TAF: LFPB 231100Z 2312/2412 28010KT 9999 BKN030

Observations et prévisions météorologiques de plus de 4000 aéroports (messages METAR et TAF).

Les stations disponibles sont représentées par des disques jaunes et rouges sur la carte.

Passer la souris dessus pour voir le nom de la station.

Cliquer dessus pour voir les observations et prévisions météorologiques.

Pour changer de carte: cliquez sur les boutons verts avec une croix noire pour zoomer, sur le bouton vert avec un tiret pour effectuer un zoom arrière, ou sur les flèches vertes pour les cartes adjacentes.


METAR-TAF: